createdAt,value
2023-05-09T00:00:23.478Z,79.11
2023-05-09T00:05:25.655Z,79.66
2023-05-09T00:10:27.963Z,79.61
2023-05-09T00:15:30.573Z,79.61
2023-05-09T00:20:34.069Z,79.82
2023-05-09T00:25:35.962Z,79.93
2023-05-09T00:30:37.700Z,80.15
2023-05-09T00:35:40.307Z,78.89
2023-05-09T00:40:42.033Z,77.84
2023-05-09T00:45:45.673Z,78.05
2023-05-09T00:50:52.806Z,78.45
2023-05-09T00:55:56.696Z,78.66
2023-05-09T01:00:59.263Z,79.01
2023-05-09T01:06:10.987Z,78.74
2023-05-09T01:11:34.043Z,78.92
2023-05-09T01:16:42.796Z,78.10
2023-05-09T01:21:49.047Z,78.17
2023-05-09T01:27:06.007Z,79.15
2023-05-09T01:32:11.478Z,79.60
2023-05-09T01:37:15.635Z,79.86
2023-05-09T01:42:20.504Z,80.14
2023-05-09T01:47:23.404Z,80.13
2023-05-09T01:52:26.484Z,80.31
2023-05-09T01:57:30.170Z,80.70
2023-05-09T02:02:32.920Z,81.10
2023-05-09T02:07:36.291Z,81.90
2023-05-09T02:12:38.583Z,81.78
2023-05-09T02:17:40.499Z,82.04
2023-05-09T02:22:43.953Z,81.70
2023-05-09T02:27:46.667Z,81.75
2023-05-09T02:32:50.302Z,82.17
2023-05-09T02:37:53.054Z,82.65
2023-05-09T02:42:55.497Z,82.69
2023-05-09T02:47:57.246Z,83.65
2023-05-09T02:52:58.923Z,83.46
2023-05-09T02:58:12.702Z,84.12
2023-05-09T03:03:18.000Z,84.34
2023-05-09T03:08:20.397Z,83.52
2023-05-09T03:13:22.310Z,82.39
2023-05-09T03:18:24.390Z,82.14
2023-05-09T03:23:26.744Z,82.61
2023-05-09T03:28:28.921Z,82.54
2023-05-09T03:33:33.326Z,83.64
2023-05-09T03:38:36.062Z,84.42
2023-05-09T03:43:38.224Z,83.29
2023-05-09T03:48:39.991Z,81.62
2023-05-09T03:53:41.893Z,79.78
2023-05-09T03:58:44.275Z,78.00
2023-05-09T04:07:13.206Z,74.09
2023-05-09T04:12:15.145Z,72.14
2023-05-09T04:17:17.251Z,71.09
2023-05-09T04:22:48.772Z,69.34
2023-05-09T04:27:51.289Z,68.28
2023-05-09T04:32:55.371Z,66.74
2023-05-09T04:37:57.431Z,66.32
2023-05-09T04:42:59.940Z,65.55
2023-05-09T04:48:04.402Z,65.23
2023-05-09T04:53:08.380Z,64.39
2023-05-09T04:58:10.715Z,63.90
2023-05-09T05:03:13.146Z,62.66
2023-05-09T05:08:15.066Z,62.53
2023-05-09T05:13:27.561Z,62.35
2023-05-09T05:18:31.399Z,62.41
2023-05-09T05:23:33.603Z,62.91
2023-05-09T05:28:35.747Z,62.75
2023-05-09T05:33:38.104Z,63.41
2023-05-09T05:38:40.531Z,64.05
2023-05-09T05:43:42.397Z,63.88
2023-05-09T05:48:44.789Z,63.55
2023-05-09T05:53:46.663Z,61.71
2023-05-09T05:58:48.586Z,61.25
2023-05-09T06:03:54.993Z,60.09
2023-05-09T06:08:58.960Z,59.48
2023-05-09T06:14:00.847Z,58.98
2023-05-09T06:19:02.759Z,59.21
2023-05-09T06:24:11.963Z,58.62
2023-05-09T06:29:16.596Z,57.57
2023-05-09T06:34:18.342Z,57.77
2023-05-09T06:39:20.025Z,56.99
2023-05-09T06:44:21.691Z,56.59
2023-05-09T06:49:23.408Z,56.69
2023-05-09T06:54:25.120Z,56.23
2023-05-09T06:59:27.466Z,55.78
2023-05-09T07:04:29.206Z,55.74
2023-05-09T07:09:31.302Z,54.57
2023-05-09T07:14:32.968Z,53.23
2023-05-09T07:19:34.927Z,51.93
2023-05-09T07:24:36.653Z,49.50
2023-05-09T07:29:38.586Z,48.99
2023-05-09T07:34:40.329Z,48.10
2023-05-09T07:39:42.020Z,47.42
2023-05-09T07:44:43.919Z,46.01
2023-05-09T07:49:46.637Z,45.51
2023-05-09T07:54:48.964Z,45.73
2023-05-09T07:59:50.719Z,45.97
2023-05-09T08:04:52.619Z,45.74
2023-05-09T08:09:54.459Z,44.75
2023-05-09T08:14:56.125Z,44.38
2023-05-09T08:19:58.070Z,44.53
2023-05-09T08:24:59.906Z,44.95
2023-05-09T08:30:01.733Z,43.67
2023-05-09T08:35:03.755Z,43.65
2023-05-09T08:40:10.049Z,43.14
2023-05-09T08:45:16.319Z,42.57
2023-05-09T08:50:18.312Z,42.56
2023-05-09T08:55:20.950Z,42.53
2023-05-09T09:00:23.386Z,41.57
2023-05-09T09:05:40.674Z,42.04
2023-05-09T09:10:47.269Z,41.08
2023-05-09T09:15:53.140Z,40.27
2023-05-09T09:20:59.690Z,40.07
2023-05-09T09:26:05.017Z,41.30
2023-05-09T09:31:24.988Z,40.80
2023-05-09T09:36:29.023Z,41.28
2023-05-09T09:41:32.938Z,41.37
2023-05-09T09:46:51.103Z,41.71
2023-05-09T09:51:55.216Z,42.20
2023-05-09T09:56:57.532Z,41.28
2023-05-09T10:02:04.021Z,39.21
2023-05-09T10:07:12.732Z,38.84
2023-05-09T10:12:19.715Z,38.65
2023-05-09T10:17:22.823Z,38.03
2023-05-09T10:22:25.085Z,37.14
2023-05-09T10:27:28.758Z,36.72
2023-05-09T10:32:48.516Z,36.38
2023-05-09T10:37:50.607Z,35.28
2023-05-09T10:42:52.418Z,34.74
2023-05-09T10:47:56.650Z,34.16
2023-05-09T10:53:07.896Z,34.14
2023-05-09T10:58:29.131Z,34.14
2023-05-09T11:03:54.651Z,34.86
2023-05-09T11:08:56.350Z,34.92
2023-05-09T11:13:58.456Z,34.34
2023-05-09T11:19:00.193Z,33.81
2023-05-09T11:24:16.421Z,33.69
2023-05-09T11:29:18.176Z,32.80
2023-05-09T11:34:20.066Z,33.02
2023-05-09T11:39:25.299Z,32.58
2023-05-09T11:44:28.070Z,31.80
2023-05-09T11:49:29.872Z,30.93
2023-05-09T11:54:31.700Z,30.95
2023-05-09T11:59:34.925Z,29.82
2023-05-09T12:04:36.939Z,29.70
2023-05-09T12:09:38.998Z,28.55
2023-05-09T12:14:41.563Z,28.33
2023-05-09T12:19:44.470Z,28.71
2023-05-09T12:24:46.194Z,28.47
2023-05-09T12:29:48.317Z,27.71
2023-05-09T12:34:50.167Z,27.01
2023-05-09T12:40:12.905Z,27.02
2023-05-09T12:45:15.774Z,26.93
2023-05-09T12:50:17.763Z,27.31
2023-05-09T12:55:20.611Z,27.39
2023-05-09T13:00:22.677Z,26.73
2023-05-09T13:05:24.491Z,27.40
2023-05-09T13:10:29.101Z,27.40
2023-05-09T13:15:31.190Z,27.65
2023-05-09T13:20:32.897Z,26.03
2023-05-09T13:25:34.698Z,25.83
2023-05-09T13:30:36.382Z,27.06
2023-05-09T13:35:38.213Z,26.06
2023-05-09T13:40:40.399Z,25.30
2023-05-09T13:45:42.305Z,24.57
2023-05-09T13:50:44.708Z,24.65
2023-05-09T13:55:47.223Z,25.64
2023-05-09T14:00:48.947Z,26.85
2023-05-09T14:05:51.211Z,28.75
2023-05-09T14:10:52.906Z,28.83
2023-05-09T14:15:54.730Z,27.68
2023-05-09T14:20:56.691Z,27.35
2023-05-09T14:25:58.520Z,27.73
2023-05-09T14:31:00.492Z,26.99
2023-05-09T14:36:03.068Z,26.18
2023-05-09T14:41:05.322Z,25.65
2023-05-09T14:46:07.338Z,26.05
2023-05-09T14:51:09.217Z,26.54
2023-05-09T14:56:14.112Z,26.43
2023-05-09T15:01:16.182Z,26.65
2023-05-09T15:06:18.405Z,26.58
2023-05-09T15:11:20.156Z,27.58
2023-05-09T15:16:21.932Z,27.71
2023-05-09T15:21:24.053Z,27.32
2023-05-09T15:26:26.175Z,27.41
2023-05-09T15:31:33.025Z,26.83
2023-05-09T15:36:34.883Z,27.27
2023-05-09T15:41:36.771Z,27.89
2023-05-09T15:46:38.691Z,27.73
2023-05-09T15:51:40.342Z,27.77
2023-05-09T15:56:42.005Z,27.53
2023-05-09T16:01:43.734Z,27.78
2023-05-09T16:06:45.755Z,28.25
2023-05-09T16:11:47.612Z,28.44
2023-05-09T16:16:51.610Z,28.43
2023-05-09T16:21:53.617Z,28.07
2023-05-09T16:26:55.349Z,28.40
2023-05-09T16:31:57.128Z,28.34
2023-05-09T16:36:58.869Z,29.08
2023-05-09T16:42:00.838Z,28.24
2023-05-09T16:47:02.698Z,28.83
2023-05-09T16:52:04.595Z,28.97
2023-05-09T16:57:06.412Z,29.82
2023-05-09T17:02:08.504Z,29.79
2023-05-09T17:07:12.683Z,30.04
2023-05-09T17:12:17.506Z,30.40
2023-05-09T17:17:19.322Z,31.21
2023-05-09T17:22:21.076Z,31.23
2023-05-09T17:27:23.127Z,31.00
2023-05-09T17:32:25.217Z,31.20
2023-05-09T17:37:26.942Z,31.63
2023-05-09T17:42:28.581Z,32.40
2023-05-09T17:47:30.329Z,33.04
2023-05-09T17:52:32.214Z,33.70
2023-05-09T17:57:33.901Z,34.32
2023-05-09T18:02:35.949Z,35.80
2023-05-09T18:07:39.456Z,37.25
2023-05-09T18:12:41.605Z,38.77
2023-05-09T18:17:43.965Z,40.08
2023-05-09T18:22:47.010Z,41.22
2023-05-09T18:27:48.792Z,42.42
2023-05-09T18:32:50.746Z,42.87
2023-05-09T18:37:52.681Z,43.90
2023-05-09T18:42:54.370Z,44.48
2023-05-09T18:47:56.137Z,45.04
2023-05-09T18:52:59.728Z,46.19
2023-05-09T18:58:09.478Z,46.60
2023-05-09T19:03:14.181Z,47.24
2023-05-09T19:08:16.461Z,47.60
2023-05-09T19:13:18.341Z,47.82
2023-05-09T19:18:20.178Z,48.63
2023-05-09T19:23:21.983Z,49.30
2023-05-09T19:28:24.179Z,49.77
2023-05-09T19:33:25.952Z,50.18
2023-05-09T19:38:27.783Z,50.72
2023-05-09T19:43:29.433Z,50.88
2023-05-09T19:48:31.107Z,51.22
2023-05-09T19:53:32.812Z,51.40
2023-05-09T19:58:35.431Z,51.47
2023-05-09T20:03:38.603Z,51.41
2023-05-09T20:08:40.659Z,51.36
2023-05-09T20:13:43.026Z,51.46
2023-05-09T20:18:44.685Z,51.59
2023-05-09T20:23:46.874Z,51.42
2023-05-09T20:28:48.652Z,51.51
2023-05-09T20:33:51.445Z,51.53
2023-05-09T20:38:53.325Z,51.88
2023-05-09T20:44:03.397Z,52.38
2023-05-09T20:49:05.151Z,52.53
2023-05-09T20:54:07.272Z,52.42
2023-05-09T20:59:08.947Z,52.61
2023-05-09T21:04:10.700Z,53.11
2023-05-09T21:09:14.897Z,52.83
2023-05-09T21:14:23.181Z,53.14
2023-05-09T21:19:24.960Z,53.41
2023-05-09T21:24:26.630Z,53.61
2023-05-09T21:29:28.279Z,53.56
2023-05-09T21:34:29.949Z,53.89
2023-05-09T21:39:37.905Z,53.99
2023-05-09T21:44:40.253Z,54.48
2023-05-09T21:50:02.178Z,55.21
2023-05-09T21:55:04.332Z,55.13
2023-05-09T22:00:08.263Z,55.87
2023-05-09T22:05:14.680Z,56.31
2023-05-09T22:10:16.660Z,57.00
2023-05-09T22:15:19.014Z,57.49
2023-05-09T22:20:21.218Z,57.91
2023-05-09T22:25:22.839Z,58.73
2023-05-09T22:30:24.908Z,59.22
2023-05-09T22:35:26.595Z,59.18
2023-05-09T22:40:29.412Z,59.35
2023-05-09T22:45:31.085Z,60.48
2023-05-09T22:50:32.856Z,60.71
2023-05-09T22:55:34.578Z,61.04
2023-05-09T23:00:36.369Z,61.47
2023-05-09T23:05:38.012Z,61.53
2023-05-09T23:10:46.719Z,61.83
2023-05-09T23:15:53.625Z,62.44
2023-05-09T23:20:55.359Z,62.67
2023-05-09T23:25:56.974Z,62.95
2023-05-09T23:30:58.754Z,63.12
2023-05-09T23:36:00.602Z,63.14
2023-05-09T23:41:04.036Z,63.81
2023-05-09T23:46:18.833Z,63.67
2023-05-09T23:51:23.085Z,63.68
2023-05-09T23:56:25.322Z,64.26
